Aérodrome :
LOGIN :

S'inscrire | Disclaimer

   EN    FR    IT 

 










Légende :    VFR   VFR Marginal   IFR   IFR Intensif   IFR Très Intensif
Visi : 
Plafond : 
>= 8 km
>= 3000ft
5 à 8 km
1000 à 3000 ft
1500m à 5 km
500 à 1000 ft
800 à 1500m
200 à 500 ft
< 800m
< 200 ft
Symboles :   Orages  Brouillard  Fortes neiges  Fortes précipitations  Vent > 20 kt
SIGMETs :   Divers  Orages  Givrage  Turbulence  Onde Orograph.  Cendres Volcan.






- Altitude de l'aérodrome : 353 ft
- Code IATA : LIN


LIML - Milano Linate

DERNIER METAR :
  • 200650Z VRB01KT 1800 BR BKN010 04/04 Q1022 BECMG 4000 BR

METARs EXPIRÉS :
  • 200620Z 21002KT 2000 BR BKN010 04/04 Q1021 BECMG 4000 BR
  • 200550Z 22003KT 2000 BR BKN010 04/04 Q1021 NOSIG
  • 200520Z VRB02KT 2000 BR BKN010 04/04 Q1021 NOSIG
  • 200450Z 19003KT 2000 BR BKN010 04/04 Q1021 NOSIG
  • 200420Z 22002KT 3500 -RA BR FEW003 BKN010 04/04 Q1022 NOSIG
  • 200350Z 15002KT 3500 -RA BR FEW003 BKN010 04/04 Q1021 NOSIG

TAF TAF LIML
Valide du 20 à 06h jusqu'au 21 à 06h UTC


200500Z 2006/2106 VRB05KT 3000 BR SCT030
TEMPO 2006/2008 0800 FG OVC005
BECMG 2009/2011 7000
BECMG 2020/2022 4000 BR
TEMPO 2100/2106 0900 FG OVC005



MET'MAP, la Météo Aéronautique d'un coup d'oeil ! - Copyright ORBIFLY Décembre 2007 - Disclaimer

ORBIFLY MET'MAP TEAM :

Programmation & Développement : Alexandra Zaïnal
Sur une idée originale de : Baudouin d'Aumeries
Assistance à la programmation : Marc-Olivier Méhu
Soutien technique & logistique : Manuel Goepfert

Contact : metmap@orbifly.com




SOURCES & CREDITS :

   NOAA